Time,TemperatureF,DewpointF,PressureIn,WindDirection,WindDirectionDegrees,WindSpeedMPH,WindSpeedGustMPH,Humidity,HourlyPrecipIn,Conditions,Clouds,dailyrainin,SoftwareType,DateUTC
2013-01-13 00:03:00,22.0,20.0,30.06,North,0,0.0,0.0,92,0.00,,,0.00,WUHU216HW,2013-01-13 08:03:00,
2013-01-13 00:08:00,22.0,20.0,30.06,North,0,0.0,0.0,92,0.00,,,0.00,WUHU216HW,2013-01-13 08:08:00,
2013-01-13 00:13:00,21.8,19.8,30.06,North,0,0.0,0.0,92,0.00,,,0.00,WUHU216HW,2013-01-13 08:13:00,
2013-01-13 00:18:00,22.0,20.0,30.06,North,0,0.0,0.0,92,0.00,,,0.00,WUHU216HW,2013-01-13 08:18:00,
2013-01-13 00:23:00,22.0,20.0,30.06,North,0,0.0,0.0,92,0.00,,,0.00,WUHU216HW,2013-01-13 08:23:00,
2013-01-13 00:28:00,22.1,20.2,30.06,North,0,0.0,0.0,92,0.00,,,0.00,WUHU216HW,2013-01-13 08:28:00,
2013-01-13 00:33:00,22.3,20.5,30.06,North,0,0.0,0.0,93,0.00,,,0.00,WUHU216HW,2013-01-13 08:33:00,
2013-01-13 00:38:00,22.5,20.7,30.05,North,0,0.0,0.0,93,0.00,,,0.00,WUHU216HW,2013-01-13 08:38:00,
2013-01-13 00:43:00,22.3,20.4,30.06,North,0,0.0,0.0,92,0.00,,,0.00,WUHU216HW,2013-01-13 08:43:00,
2013-01-13 00:48:00,22.3,20.4,30.06,North,0,0.0,0.0,92,0.00,,,0.00,WUHU216HW,2013-01-13 08:48:00,
2013-01-13 00:53:00,22.5,20.5,30.06,North,0,0.0,0.0,92,0.00,,,0.00,WUHU216HW,2013-01-13 08:53:00,
2013-01-13 00:58:00,22.3,20.4,30.07,North,0,0.0,0.0,92,0.00,,,0.00,WUHU216HW,2013-01-13 08:58:00,
2013-01-13 01:03:00,22.0,20.0,30.07,North,0,0.0,0.0,92,0.00,,,0.00,WUHU216HW,2013-01-13 09:03:00,
2013-01-13 01:08:00,22.0,20.0,30.06,North,0,0.0,0.0,92,0.00,,,0.00,WUHU216HW,2013-01-13 09:08:00,
2013-01-13 01:13:00,22.0,20.0,30.06,North,0,0.0,0.0,92,0.00,,,0.00,WUHU216HW,2013-01-13 09:13:00,
2013-01-13 01:18:00,21.8,19.8,30.06,North,0,0.0,0.0,92,0.00,,,0.00,WUHU216HW,2013-01-13 09:18:00,
2013-01-13 01:23:00,22.0,20.0,30.07,North,0,0.0,0.0,92,0.00,,,0.00,WUHU216HW,2013-01-13 09:23:00,
2013-01-13 01:28:00,22.0,20.0,30.07,North,0,0.0,0.0,92,0.00,,,0.00,WUHU216HW,2013-01-13 09:28:00,
2013-01-13 01:33:00,21.8,19.8,30.07,North,0,0.0,0.0,92,0.00,,,0.00,WUHU216HW,2013-01-13 09:33:00,
2013-01-13 01:38:00,21.6,19.6,30.06,North,0,0.0,0.0,92,0.00,,,0.00,WUHU216HW,2013-01-13 09:38:00,
2013-01-13 01:43:00,21.6,19.8,30.06,North,0,0.0,0.0,93,0.00,,,0.00,WUHU216HW,2013-01-13 09:43:00,
2013-01-13 01:48:00,21.6,19.8,30.06,North,0,0.0,0.0,93,0.00,,,0.00,WUHU216HW,2013-01-13 09:48:00,
2013-01-13 01:53:00,21.6,19.8,30.06,North,0,0.0,0.0,93,0.00,,,0.00,WUHU216HW,2013-01-13 09:53:00,
2013-01-13 01:58:00,21.6,19.8,30.06,North,0,0.0,0.0,93,0.00,,,0.00,WUHU216HW,2013-01-13 09:58:00,
2013-01-13 02:03:00,21.6,19.8,30.06,North,0,0.0,0.0,93,0.00,,,0.00,WUHU216HW,2013-01-13 10:03:00,
2013-01-13 02:08:00,21.2,19.4,30.06,North,0,0.0,0.0,93,0.00,,,0.00,WUHU216HW,2013-01-13 10:08:00,
2013-01-13 02:13:00,21.2,19.4,30.06,North,0,0.0,0.0,93,0.00,,,0.00,WUHU216HW,2013-01-13 10:13:00,
2013-01-13 02:18:00,21.2,19.3,30.07,North,0,0.0,0.0,92,0.00,,,0.00,WUHU216HW,2013-01-13 10:18:00,
2013-01-13 02:23:00,21.2,19.4,30.07,North,0,0.0,0.0,93,0.00,,,0.00,WUHU216HW,2013-01-13 10:23:00,
2013-01-13 02:28:00,21.2,19.3,30.07,North,0,0.0,0.0,92,0.00,,,0.00,WUHU216HW,2013-01-13 10:28:00,
2013-01-13 02:33:00,21.2,19.4,30.07,North,0,0.0,0.0,93,0.00,,,0.00,WUHU216HW,2013-01-13 10:33:00,
2013-01-13 02:38:00,21.2,19.4,30.07,North,0,0.0,0.0,93,0.00,,,0.00,WUHU216HW,2013-01-13 10:38:00,
2013-01-13 02:43:00,21.2,19.4,30.06,North,0,0.0,0.0,93,0.00,,,0.00,WUHU216HW,2013-01-13 10:43:00,
2013-01-13 02:48:00,21.2,19.4,30.07,North,0,0.0,0.0,93,0.00,,,0.00,WUHU216HW,2013-01-13 10:48:00,
2013-01-13 02:53:00,21.2,19.4,30.07,North,0,0.0,0.0,93,0.00,,,0.00,WUHU216HW,2013-01-13 10:53:00,
2013-01-13 02:58:00,21.4,19.6,30.07,North,0,0.0,0.0,93,0.00,,,0.00,WUHU216HW,2013-01-13 10:58:00,
2013-01-13 03:03:00,21.4,19.6,30.07,North,0,0.0,0.0,93,0.00,,,0.00,WUHU216HW,2013-01-13 11:03:00,
2013-01-13 03:08:00,21.4,19.6,30.07,North,0,0.0,0.0,93,0.00,,,0.00,WUHU216HW,2013-01-13 11:08:00,
2013-01-13 03:13:00,21.2,19.4,30.07,North,0,0.0,0.0,93,0.00,,,0.00,WUHU216HW,2013-01-13 11:13:00,
2013-01-13 03:18:00,21.2,19.4,30.07,North,0,0.0,0.0,93,0.00,,,0.00,WUHU216HW,2013-01-13 11:18:00,
2013-01-13 03:23:00,21.1,19.3,30.07,North,0,0.0,0.0,93,0.00,,,0.00,WUHU216HW,2013-01-13 11:23:00,
2013-01-13 03:28:00,20.9,19.1,30.07,North,0,0.0,0.0,93,0.00,,,0.00,WUHU216HW,2013-01-13 11:28:00,
2013-01-13 03:33:00,21.1,19.3,30.07,North,0,0.0,0.0,93,0.00,,,0.00,WUHU216HW,2013-01-13 11:33:00,
2013-01-13 03:38:00,21.1,19.3,30.06,North,0,0.0,0.0,93,0.00,,,0.00,WUHU216HW,2013-01-13 11:38:00,
2013-01-13 03:43:00,21.1,19.3,30.07,North,0,0.0,0.0,93,0.00,,,0.00,WUHU216HW,2013-01-13 11:43:00,
2013-01-13 03:48:00,21.1,19.3,30.06,North,0,0.0,0.0,93,0.00,,,0.00,WUHU216HW,2013-01-13 11:48:00,
2013-01-13 03:53:00,21.1,19.3,30.06,North,0,0.0,0.0,93,0.00,,,0.00,WUHU216HW,2013-01-13 11:53:00,
2013-01-13 03:58:00,21.1,19.3,30.06,North,0,0.0,0.0,93,0.00,,,0.00,WUHU216HW,2013-01-13 11:58:00,
2013-01-13 04:03:00,21.1,19.3,30.05,North,0,0.0,0.0,93,0.00,,,0.00,WUHU216HW,2013-01-13 12:03:00,
2013-01-13 04:08:00,21.2,19.4,30.05,North,0,0.0,0.0,93,0.00,,,0.00,WUHU216HW,2013-01-13 12:08:00,
2013-01-13 04:13:00,21.2,19.4,30.05,North,0,0.0,0.0,93,0.00,,,0.00,WUHU216HW,2013-01-13 12:13:00,
2013-01-13 04:18:00,21.2,19.4,30.05,North,0,0.0,0.0,93,0.00,,,0.00,WUHU216HW,2013-01-13 12:18:00,
2013-01-13 04:23:00,21.2,19.3,30.05,North,0,0.0,0.0,92,0.00,,,0.00,WUHU216HW,2013-01-13 12:23:00,
2013-01-13 04:28:00,21.2,19.4,30.05,North,0,0.0,0.0,93,0.00,,,0.00,WUHU216HW,2013-01-13 12:28:00,
2013-01-13 04:33:00,21.2,19.4,30.05,North,0,0.0,0.0,93,0.00,,,0.00,WUHU216HW,2013-01-13 12:33:00,
2013-01-13 04:38:00,21.2,19.4,30.05,North,0,0.0,0.0,93,0.00,,,0.00,WUHU216HW,2013-01-13 12:38:00,
2013-01-13 04:43:00,21.2,19.4,30.05,North,0,0.0,0.0,93,0.00,,,0.00,WUHU216HW,2013-01-13 12:43:00,
2013-01-13 04:48:00,21.1,19.3,30.05,North,0,0.0,0.0,93,0.00,,,0.00,WUHU216HW,2013-01-13 12:48:00,
2013-01-13 04:53:00,21.1,19.3,30.05,North,0,0.0,0.0,93,0.00,,,0.00,WUHU216HW,2013-01-13 12:53:00,
2013-01-13 04:58:00,21.1,19.3,30.05,North,0,0.0,0.0,93,0.00,,,0.00,WUHU216HW,2013-01-13 12:58:00,
2013-01-13 05:03:00,21.2,19.4,30.06,North,0,0.0,0.0,93,0.00,,,0.00,WUHU216HW,2013-01-13 13:03:00,
2013-01-13 05:08:00,21.2,19.4,30.06,North,0,0.0,0.0,93,0.00,,,0.00,WUHU216HW,2013-01-13 13:08:00,
2013-01-13 05:13:00,21.1,19.3,30.06,North,0,0.0,0.0,93,0.00,,,0.00,WUHU216HW,2013-01-13 13:13:00,
2013-01-13 05:18:00,21.2,19.4,30.06,North,0,0.0,0.0,93,0.00,,,0.00,WUHU216HW,2013-01-13 13:18:00,
2013-01-13 05:23:00,21.2,19.4,30.06,North,0,0.0,0.0,93,0.00,,,0.00,WUHU216HW,2013-01-13 13:23:00,
2013-01-13 05:28:00,21.4,19.6,30.06,North,0,0.0,0.0,93,0.00,,,0.00,WUHU216HW,2013-01-13 13:28:00,
2013-01-13 05:33:00,21.6,19.8,30.06,North,0,0.0,0.0,93,0.00,,,0.00,WUHU216HW,2013-01-13 13:33:00,
2013-01-13 05:38:00,21.6,19.8,30.06,North,0,0.0,0.0,93,0.00,,,0.00,WUHU216HW,2013-01-13 13:38:00,
2013-01-13 05:43:00,21.6,19.8,30.06,North,0,0.0,0.0,93,0.00,,,0.00,WUHU216HW,2013-01-13 13:43:00,
2013-01-13 05:48:00,21.2,19.4,30.06,North,0,0.0,0.0,93,0.00,,,0.00,WUHU216HW,2013-01-13 13:48:00,
2013-01-13 05:53:00,21.2,19.3,30.06,North,0,0.0,0.0,92,0.00,,,0.00,WUHU216HW,2013-01-13 13:53:00,
2013-01-13 05:58:00,21.2,19.4,30.06,North,0,0.0,0.0,93,0.00,,,0.00,WUHU216HW,2013-01-13 13:58:00,
2013-01-13 06:03:00,21.2,19.4,30.06,North,0,0.0,0.0,93,0.00,,,0.00,WUHU216HW,2013-01-13 14:03:00,
2013-01-13 06:08:00,21.1,19.3,30.06,North,0,0.0,0.0,93,0.00,,,0.00,WUHU216HW,2013-01-13 14:08:00,
2013-01-13 06:13:00,20.9,19.1,30.06,North,0,0.0,0.0,93,0.00,,,0.00,WUHU216HW,2013-01-13 14:13:00,
2013-01-13 06:18:00,20.9,19.1,30.06,North,0,0.0,0.0,93,0.00,,,0.00,WUHU216HW,2013-01-13 14:18:00,
2013-01-13 06:23:00,20.9,19.1,30.07,North,0,0.0,0.0,93,0.00,,,0.00,WUHU216HW,2013-01-13 14:23:00,
2013-01-13 06:28:00,20.9,19.1,30.07,North,0,0.0,0.0,93,0.00,,,0.00,WUHU216HW,2013-01-13 14:28:00,
2013-01-13 06:33:00,20.7,18.9,30.07,North,0,0.0,0.0,93,0.00,,,0.00,WUHU216HW,2013-01-13 14:33:00,
2013-01-13 06:38:00,20.7,18.9,30.07,North,0,0.0,0.0,93,0.00,,,0.00,WUHU216HW,2013-01-13 14:38:00,
2013-01-13 06:43:00,20.5,18.7,30.07,North,0,0.0,0.0,93,0.00,,,0.00,WUHU216HW,2013-01-13 14:43:00,
2013-01-13 06:48:00,20.5,18.6,30.07,North,0,0.0,0.0,92,0.00,,,0.00,WUHU216HW,2013-01-13 14:48:00,
2013-01-13 06:53:00,20.5,18.7,30.07,North,0,0.0,0.0,93,0.00,,,0.00,WUHU216HW,2013-01-13 14:53:00,
2013-01-13 06:58:00,20.5,18.7,30.07,North,0,0.0,0.0,93,0.00,,,0.00,WUHU216HW,2013-01-13 14:58:00,
2013-01-13 07:03:00,20.5,18.7,30.08,North,0,0.0,0.0,93,0.00,,,0.00,WUHU216HW,2013-01-13 15:03:00,
2013-01-13 07:08:00,20.5,18.7,30.08,North,0,0.0,0.0,93,0.00,,,0.00,WUHU216HW,2013-01-13 15:08:00,
2013-01-13 07:13:00,20.5,18.7,30.08,North,0,0.0,0.0,93,0.00,,,0.00,WUHU216HW,2013-01-13 15:13:00,
2013-01-13 07:18:00,20.5,18.7,30.09,North,0,0.0,0.0,93,0.00,,,0.00,WUHU216HW,2013-01-13 15:18:00,
2013-01-13 07:23:00,20.5,18.7,30.08,North,0,0.0,0.0,93,0.00,,,0.00,WUHU216HW,2013-01-13 15:23:00,
2013-01-13 07:28:00,20.5,18.7,30.08,North,0,0.0,0.0,93,0.00,,,0.00,WUHU216HW,2013-01-13 15:28:00,
2013-01-13 07:33:00,20.5,18.6,30.09,North,0,0.0,0.0,92,0.00,,,0.00,WUHU216HW,2013-01-13 15:33:00,
2013-01-13 07:38:00,20.7,18.7,30.09,North,0,0.0,0.0,92,0.00,,,0.00,WUHU216HW,2013-01-13 15:38:00,
2013-01-13 07:43:00,20.9,19.1,30.09,North,0,0.0,0.0,93,0.00,,,0.00,WUHU216HW,2013-01-13 15:43:00,
2013-01-13 07:48:00,20.9,18.9,30.09,North,0,0.0,0.0,92,0.00,,,0.00,WUHU216HW,2013-01-13 15:48:00,
2013-01-13 07:53:00,20.9,19.1,30.09,North,0,0.0,0.0,93,0.00,,,0.00,WUHU216HW,2013-01-13 15:53:00,
2013-01-13 07:58:00,20.9,18.9,30.09,North,0,0.0,0.0,92,0.00,,,0.00,WUHU216HW,2013-01-13 15:58:00,
2013-01-13 08:03:00,21.1,19.3,30.09,North,0,0.0,0.0,93,0.00,,,0.00,WUHU216HW,2013-01-13 16:03:00,
2013-01-13 08:08:00,21.1,19.3,30.09,North,0,0.0,0.0,93,0.00,,,0.00,WUHU216HW,2013-01-13 16:08:00,
2013-01-13 08:13:00,21.2,19.4,30.09,North,0,0.0,0.0,93,0.00,,,0.00,WUHU216HW,2013-01-13 16:13:00,
2013-01-13 08:18:00,21.2,19.4,30.09,North,0,0.0,0.0,93,0.00,,,0.00,WUHU216HW,2013-01-13 16:18:00,
2013-01-13 08:23:00,21.2,19.4,30.09,North,0,0.0,0.0,93,0.00,,,0.00,WUHU216HW,2013-01-13 16:23:00,
2013-01-13 08:28:00,21.4,19.6,30.10,North,0,0.0,0.0,93,0.00,,,0.00,WUHU216HW,2013-01-13 16:28:00,
2013-01-13 08:33:00,21.4,19.6,30.10,North,0,0.0,0.0,93,0.00,,,0.00,WUHU216HW,2013-01-13 16:33:00,
2013-01-13 08:38:00,21.8,20.0,30.10,North,0,0.0,0.0,93,0.00,,,0.00,WUHU216HW,2013-01-13 16:38:00,
2013-01-13 08:43:00,22.0,20.2,30.09,North,0,0.0,0.0,93,0.00,,,0.00,WUHU216HW,2013-01-13 16:43:00,
2013-01-13 08:48:00,22.3,20.5,30.10,North,0,0.0,0.0,93,0.00,,,0.00,WUHU216HW,2013-01-13 16:48:00,
2013-01-13 08:53:00,22.5,21.0,30.10,North,0,0.0,0.0,94,0.00,,,0.00,WUHU216HW,2013-01-13 16:53:00,
2013-01-13 08:58:00,22.9,21.3,30.09,North,0,0.0,0.0,94,0.00,,,0.00,WUHU216HW,2013-01-13 16:58:00,
2013-01-13 09:03:00,23.4,21.9,30.09,North,0,0.0,0.0,94,0.00,,,0.00,WUHU216HW,2013-01-13 17:03:00,
2013-01-13 09:08:00,23.6,22.1,30.09,North,0,0.0,0.0,94,0.00,,,0.00,WUHU216HW,2013-01-13 17:08:00,
2013-01-13 09:13:00,23.8,22.2,30.10,North,0,0.0,0.0,94,0.00,,,0.00,WUHU216HW,2013-01-13 17:13:00,
2013-01-13 09:18:00,24.5,23.0,30.10,North,0,0.0,0.0,94,0.00,,,0.00,WUHU216HW,2013-01-13 17:18:00,
2013-01-13 09:23:00,24.8,23.3,30.09,North,0,0.0,0.0,94,0.00,,,0.00,WUHU216HW,2013-01-13 17:23:00,
2013-01-13 09:28:00,25.2,23.7,30.09,North,0,0.0,0.0,94,0.00,,,0.00,WUHU216HW,2013-01-13 17:28:00,
2013-01-13 09:33:00,25.2,23.7,30.09,North,0,0.0,0.0,94,0.00,,,0.00,WUHU216HW,2013-01-13 17:33:00,
2013-01-13 09:38:00,25.6,24.0,30.10,North,0,0.0,0.0,94,0.00,,,0.00,WUHU216HW,2013-01-13 17:38:00,
2013-01-13 09:43:00,25.6,23.8,30.10,North,0,0.0,0.0,93,0.00,,,0.00,WUHU216HW,2013-01-13 17:43:00,
2013-01-13 09:48:00,25.7,23.9,30.10,North,0,0.0,0.0,93,0.00,,,0.00,WUHU216HW,2013-01-13 17:48:00,
2013-01-13 09:53:00,25.9,24.1,30.10,North,0,0.0,0.0,93,0.00,,,0.00,WUHU216HW,2013-01-13 17:53:00,
2013-01-13 09:58:00,26.1,24.3,30.10,North,0,0.0,0.0,93,0.00,,,0.00,WUHU216HW,2013-01-13 17:58:00,
2013-01-13 10:03:00,26.3,24.5,30.10,North,0,0.0,0.0,93,0.00,,,0.00,WUHU216HW,2013-01-13 18:03:00,
2013-01-13 10:08:00,26.5,24.7,30.10,North,0,0.0,0.0,93,0.00,,,0.00,WUHU216HW,2013-01-13 18:08:00,
2013-01-13 10:13:00,26.5,24.5,30.10,North,0,0.0,0.0,92,0.00,,,0.00,WUHU216HW,2013-01-13 18:13:00,
2013-01-13 10:18:00,26.6,24.7,30.10,North,0,0.0,0.0,92,0.00,,,0.00,WUHU216HW,2013-01-13 18:18:00,
2013-01-13 10:23:00,26.8,24.9,30.10,North,0,0.0,0.0,92,0.00,,,0.00,WUHU216HW,2013-01-13 18:23:00,
2013-01-13 10:28:00,27.0,25.0,30.11,North,0,0.0,0.0,92,0.00,,,0.00,WUHU216HW,2013-01-13 18:28:00,
2013-01-13 10:33:00,27.4,25.6,30.11,North,0,0.0,0.0,93,0.00,,,0.00,WUHU216HW,2013-01-13 18:33:00,
2013-01-13 10:38:00,27.9,26.4,30.11,North,0,0.0,0.0,94,0.01,,,0.01,WUHU216HW,2013-01-13 18:38:00,
2013-01-13 10:43:00,28.4,26.9,30.11,North,0,0.0,0.0,94,0.01,,,0.01,WUHU216HW,2013-01-13 18:43:00,
2013-01-13 10:48:00,28.6,26.8,30.11,North,0,0.0,0.0,93,0.01,,,0.01,WUHU216HW,2013-01-13 18:48:00,
2013-01-13 10:53:00,28.8,27.0,30.11,North,0,0.0,0.0,93,0.01,,,0.01,WUHU216HW,2013-01-13 18:53:00,
2013-01-13 10:58:00,29.2,27.4,30.10,North,0,0.0,0.0,93,0.01,,,0.01,WUHU216HW,2013-01-13 18:58:00,
2013-01-13 11:03:00,29.5,27.7,30.10,North,0,0.0,0.0,93,0.01,,,0.01,WUHU216HW,2013-01-13 19:03:00,
2013-01-13 11:08:00,29.9,28.1,30.10,North,0,0.0,0.0,93,0.01,,,0.01,WUHU216HW,2013-01-13 19:08:00,
2013-01-13 11:13:00,30.2,28.4,30.10,North,0,0.0,0.0,93,0.01,,,0.01,WUHU216HW,2013-01-13 19:13:00,
2013-01-13 11:18:00,30.6,28.6,30.10,North,0,0.0,0.0,92,0.01,,,0.01,WUHU216HW,2013-01-13 19:18:00,
2013-01-13 11:23:00,31.1,29.2,30.09,North,0,0.0,0.0,92,0.01,,,0.01,WUHU216HW,2013-01-13 19:23:00,
2013-01-13 11:28:00,31.3,29.4,30.09,North,0,0.0,0.0,92,0.01,,,0.01,WUHU216HW,2013-01-13 19:28:00,
2013-01-13 11:33:00,31.5,29.5,30.08,North,0,0.0,0.0,92,0.01,,,0.01,WUHU216HW,2013-01-13 19:33:00,
2013-01-13 11:38:00,31.9,29.9,30.08,North,0,0.0,0.0,92,0.00,,,0.01,WUHU216HW,2013-01-13 19:38:00,
2013-01-13 11:43:00,32.2,30.2,30.08,North,0,0.0,0.0,92,0.00,,,0.01,WUHU216HW,2013-01-13 19:43:00,
2013-01-13 11:48:00,32.4,30.3,30.08,North,0,0.0,0.0,92,0.00,,,0.01,WUHU216HW,2013-01-13 19:48:00,
2013-01-13 11:53:00,32.9,30.9,30.08,North,0,0.0,0.0,92,0.00,,,0.01,WUHU216HW,2013-01-13 19:53:00,
2013-01-13 11:58:00,33.3,31.4,30.08,North,0,0.0,0.0,93,0.00,,,0.01,WUHU216HW,2013-01-13 19:58:00,
2013-01-13 12:03:00,33.8,31.7,30.08,North,0,0.0,0.0,92,0.00,,,0.01,WUHU216HW,2013-01-13 20:03:00,
2013-01-13 12:08:00,34.2,32.0,30.08,North,0,0.0,0.0,92,0.00,,,0.01,WUHU216HW,2013-01-13 20:08:00,
2013-01-13 12:13:00,34.2,31.8,30.08,North,0,0.0,0.0,91,0.00,,,0.01,WUHU216HW,2013-01-13 20:13:00,
2013-01-13 12:18:00,34.2,31.2,30.08,North,0,0.0,0.0,89,0.00,,,0.01,WUHU216HW,2013-01-13 20:18:00,
2013-01-13 12:23:00,34.2,31.2,30.08,North,0,0.0,0.0,89,0.00,,,0.01,WUHU216HW,2013-01-13 20:23:00,
2013-01-13 12:28:00,34.2,31.5,30.08,North,0,0.0,0.0,90,0.00,,,0.01,WUHU216HW,2013-01-13 20:28:00,
2013-01-13 12:33:00,34.2,31.2,30.08,North,0,0.0,0.0,89,0.00,,,0.01,WUHU216HW,2013-01-13 20:33:00,
2013-01-13 12:38:00,34.2,31.2,30.08,North,0,0.0,0.0,89,0.00,,,0.01,WUHU216HW,2013-01-13 20:38:00,
2013-01-13 12:43:00,34.2,31.0,30.08,North,0,0.0,0.0,88,0.00,,,0.01,WUHU216HW,2013-01-13 20:43:00,
2013-01-13 12:48:00,34.2,30.6,30.08,North,0,0.0,0.0,87,0.00,,,0.01,WUHU216HW,2013-01-13 20:48:00,
2013-01-13 12:53:00,34.4,30.8,30.08,North,0,0.0,0.0,87,0.00,,,0.01,WUHU216HW,2013-01-13 20:53:00,
2013-01-13 12:58:00,34.4,30.5,30.08,North,0,0.0,0.0,86,0.00,,,0.01,WUHU216HW,2013-01-13 20:58:00,
2013-01-13 13:03:00,34.2,30.3,30.08,East,90,0.4,1.8,86,0.00,,,0.01,WUHU216HW,2013-01-13 21:03:00,
2013-01-13 13:08:00,34.2,30.3,30.07,East,90,1.6,1.8,86,0.00,,,0.01,WUHU216HW,2013-01-13 21:08:00,
2013-01-13 13:13:00,34.0,30.2,30.07,East,90,1.1,1.6,86,0.00,,,0.01,WUHU216HW,2013-01-13 21:13:00,
2013-01-13 13:18:00,34.0,30.2,30.07,East,90,0.7,1.6,86,0.00,,,0.01,WUHU216HW,2013-01-13 21:18:00,
2013-01-13 13:23:00,34.0,30.2,30.07,East,90,0.0,1.1,86,0.00,,,0.01,WUHU216HW,2013-01-13 21:23:00,
2013-01-13 13:28:00,34.2,30.6,30.07,East,90,0.0,0.7,87,0.00,,,0.01,WUHU216HW,2013-01-13 21:28:00,
2013-01-13 13:33:00,34.2,30.3,30.07,East,90,1.8,1.8,86,0.00,,,0.01,WUHU216HW,2013-01-13 21:33:00,
2013-01-13 13:38:00,34.2,30.3,30.07,East,90,0.2,1.8,86,0.00,,,0.01,WUHU216HW,2013-01-13 21:38:00,
2013-01-13 13:43:00,34.4,30.8,30.07,East,90,0.4,1.8,87,0.00,,,0.01,WUHU216HW,2013-01-13 21:43:00,
2013-01-13 13:48:00,34.6,30.7,30.07,East,90,0.7,1.3,86,0.00,,,0.01,WUHU216HW,2013-01-13 21:48:00,
2013-01-13 13:53:00,34.6,30.7,30.07,East,90,0.0,0.9,86,0.00,,,0.01,WUHU216HW,2013-01-13 21:53:00,
2013-01-13 13:58:00,34.7,30.9,30.07,East,90,1.1,1.1,86,0.00,,,0.01,WUHU216HW,2013-01-13 21:58:00,
2013-01-13 14:03:00,34.7,30.9,30.08,East,90,0.0,1.1,86,0.00,,,0.01,WUHU216HW,2013-01-13 22:03:00,
2013-01-13 14:08:00,34.7,30.9,30.08,East,90,0.7,1.1,86,0.00,,,0.01,WUHU216HW,2013-01-13 22:08:00,
2013-01-13 14:13:00,34.7,30.6,30.08,East,90,0.0,0.9,85,0.00,,,0.01,WUHU216HW,2013-01-13 22:13:00,
2013-01-13 14:18:00,34.7,30.6,30.08,East,90,0.4,0.4,85,0.00,,,0.01,WUHU216HW,2013-01-13 22:18:00,
2013-01-13 14:23:00,34.7,30.6,30.08,East,90,0.4,0.9,85,0.00,,,0.01,WUHU216HW,2013-01-13 22:23:00,
2013-01-13 14:28:00,34.7,30.6,30.08,East,90,0.2,1.1,85,0.00,,,0.01,WUHU216HW,2013-01-13 22:28:00,
2013-01-13 14:33:00,34.7,30.9,30.08,East,90,0.0,1.1,86,0.00,,,0.01,WUHU216HW,2013-01-13 22:33:00,
2013-01-13 14:38:00,34.7,30.9,30.08,East,90,0.2,1.1,86,0.00,,,0.01,WUHU216HW,2013-01-13 22:38:00,
2013-01-13 14:43:00,34.7,30.6,30.08,East,90,0.9,0.9,85,0.00,,,0.01,WUHU216HW,2013-01-13 22:43:00,
2013-01-13 14:48:00,34.7,30.6,30.08,East,90,0.0,1.1,85,0.00,,,0.01,WUHU216HW,2013-01-13 22:48:00,
2013-01-13 14:53:00,34.7,30.6,30.08,East,90,0.7,1.1,85,0.00,,,0.01,WUHU216HW,2013-01-13 22:53:00,
2013-01-13 14:58:00,34.7,30.6,30.08,East,90,0.0,0.9,85,0.00,,,0.01,WUHU216HW,2013-01-13 22:58:00,
2013-01-13 15:03:00,34.6,30.4,30.08,East,90,0.4,0.7,85,0.00,,,0.01,WUHU216HW,2013-01-13 23:03:00,
2013-01-13 15:08:00,34.6,30.2,30.08,East,90,0.4,0.4,84,0.00,,,0.01,WUHU216HW,2013-01-13 23:08:00,
2013-01-13 15:13:00,34.4,29.7,30.08,East,90,0.4,0.9,83,0.00,,,0.01,WUHU216HW,2013-01-13 23:13:00,
2013-01-13 15:18:00,34.6,30.2,30.08,East,90,0.2,0.9,84,0.00,,,0.01,WUHU216HW,2013-01-13 23:18:00,
2013-01-13 15:23:00,34.4,30.0,30.07,East,90,0.0,0.7,84,0.00,,,0.01,WUHU216HW,2013-01-13 23:23:00,
2013-01-13 15:28:00,34.4,30.0,30.08,East,90,0.2,0.9,84,0.00,,,0.01,WUHU216HW,2013-01-13 23:28:00,
2013-01-13 15:33:00,34.2,29.8,30.08,East,90,1.1,1.1,84,0.00,,,0.01,WUHU216HW,2013-01-13 23:33:00,
2013-01-13 15:38:00,34.2,29.8,30.08,East,90,0.0,1.1,84,0.00,,,0.01,WUHU216HW,2013-01-13 23:38:00,
2013-01-13 15:43:00,34.2,29.8,30.08,East,90,0.0,1.1,84,0.00,,,0.01,WUHU216HW,2013-01-13 23:43:00,
2013-01-13 15:48:00,34.2,30.1,30.08,East,90,0.0,0.7,85,0.00,,,0.01,WUHU216HW,2013-01-13 23:48:00,
2013-01-13 15:53:00,34.0,29.6,30.08,East,90,0.0,0.7,84,0.00,,,0.01,WUHU216HW,2013-01-13 23:53:00,
2013-01-13 15:58:00,33.8,29.4,30.08,East,90,0.0,1.3,84,0.00,,,0.01,WUHU216HW,2013-01-13 23:58:00,
2013-01-13 16:03:00,33.8,29.4,30.08,East,90,0.0,1.3,84,0.00,,,0.01,WUHU216HW,2013-01-14 00:03:00,
2013-01-13 16:08:00,33.5,29.3,30.08,East,90,0.0,0.0,85,0.00,,,0.01,WUHU216HW,2013-01-14 00:08:00,
2013-01-13 16:13:00,33.5,29.3,30.08,East,90,0.0,0.0,85,0.00,,,0.01,WUHU216HW,2013-01-14 00:13:00,
2013-01-13 16:18:00,33.1,29.1,30.08,East,90,0.0,0.0,85,0.00,,,0.01,WUHU216HW,2013-01-14 00:18:00,
2013-01-13 16:23:00,32.9,28.9,30.08,East,90,0.0,0.4,85,0.00,,,0.01,WUHU216HW,2013-01-14 00:23:00,
2013-01-13 16:28:00,32.8,29.0,30.08,East,90,0.0,0.4,86,0.00,,,0.01,WUHU216HW,2013-01-14 00:28:00,
2013-01-13 16:33:00,32.6,28.9,30.08,East,90,0.0,0.0,86,0.00,,,0.01,WUHU216HW,2013-01-14 00:33:00,
2013-01-13 16:38:00,32.4,28.7,30.08,East,90,0.0,0.0,86,0.00,,,0.01,WUHU216HW,2013-01-14 00:38:00,
2013-01-13 16:43:00,32.2,28.5,30.08,East,90,0.0,0.0,86,0.00,,,0.01,WUHU216HW,2013-01-14 00:43:00,
2013-01-13 16:48:00,32.0,28.4,30.08,East,90,0.0,0.0,86,0.00,,,0.01,WUHU216HW,2013-01-14 00:48:00,
2013-01-13 16:53:00,31.7,28.0,30.08,East,90,0.0,0.0,86,0.00,,,0.01,WUHU216HW,2013-01-14 00:53:00,
2013-01-13 16:58:00,31.5,27.8,30.08,East,90,0.0,0.0,86,0.00,,,0.01,WUHU216HW,2013-01-14 00:58:00,
2013-01-13 17:03:00,31.3,27.9,30.08,East,90,0.0,0.0,87,0.00,,,0.01,WUHU216HW,2013-01-14 01:03:00,
2013-01-13 17:08:00,31.1,27.7,30.08,East,90,0.0,0.0,87,0.00,,,0.01,WUHU216HW,2013-01-14 01:08:00,
2013-01-13 17:13:00,30.8,27.4,30.09,North,0,0.0,0.0,87,0.00,,,0.01,WUHU216HW,2013-01-14 01:13:00,
2013-01-13 17:18:00,30.8,27.4,30.09,North,0,0.0,0.0,87,0.00,,,0.01,WUHU216HW,2013-01-14 01:18:00,
2013-01-13 17:23:00,30.6,27.6,30.09,North,0,0.0,0.0,88,0.00,,,0.01,WUHU216HW,2013-01-14 01:23:00,
2013-01-13 17:28:00,30.6,27.6,30.09,North,0,0.0,0.0,88,0.00,,,0.01,WUHU216HW,2013-01-14 01:28:00,
2013-01-13 17:33:00,30.2,27.2,30.09,North,0,0.0,0.0,88,0.00,,,0.01,WUHU216HW,2013-01-14 01:33:00,
2013-01-13 17:38:00,30.1,26.6,30.09,North,0,0.0,0.0,87,0.00,,,0.01,WUHU216HW,2013-01-14 01:38:00,
2013-01-13 17:43:00,29.9,26.5,30.09,North,0,0.0,0.0,87,0.00,,,0.01,WUHU216HW,2013-01-14 01:43:00,
2013-01-13 17:48:00,29.5,26.1,30.09,North,0,0.0,0.0,87,0.00,,,0.01,WUHU216HW,2013-01-14 01:48:00,
2013-01-13 17:53:00,29.3,25.9,30.09,North,0,0.0,0.0,87,0.00,,,0.01,WUHU216HW,2013-01-14 01:53:00,
2013-01-13 17:58:00,29.2,25.7,30.10,North,0,0.0,0.0,87,0.00,,,0.01,WUHU216HW,2013-01-14 01:58:00,
2013-01-13 18:03:00,29.2,25.7,30.10,North,0,0.0,0.0,87,0.00,,,0.01,WUHU216HW,2013-01-14 02:03:00,
2013-01-13 18:08:00,28.8,25.4,30.10,North,0,0.0,0.0,87,0.00,,,0.01,WUHU216HW,2013-01-14 02:08:00,
2013-01-13 18:13:00,28.6,25.2,30.10,North,0,0.0,0.0,87,0.00,,,0.01,WUHU216HW,2013-01-14 02:13:00,
2013-01-13 18:18:00,28.4,25.4,30.10,North,0,0.0,0.0,88,0.00,,,0.01,WUHU216HW,2013-01-14 02:18:00,
2013-01-13 18:23:00,28.4,25.4,30.10,North,0,0.0,0.0,88,0.00,,,0.01,WUHU216HW,2013-01-14 02:23:00,
2013-01-13 18:28:00,28.3,25.2,30.10,North,0,0.0,0.0,88,0.00,,,0.01,WUHU216HW,2013-01-14 02:28:00,
2013-01-13 18:33:00,28.1,25.0,30.10,North,0,0.0,0.0,88,0.00,,,0.01,WUHU216HW,2013-01-14 02:33:00,
2013-01-13 18:38:00,28.1,25.0,30.09,North,0,0.0,0.0,88,0.00,,,0.01,WUHU216HW,2013-01-14 02:38:00,
2013-01-13 18:43:00,27.9,24.9,30.09,East,90,0.0,0.0,88,0.00,,,0.01,WUHU216HW,2013-01-14 02:43:00,
2013-01-13 18:48:00,27.7,24.7,30.09,East,90,0.0,0.0,88,0.00,,,0.01,WUHU216HW,2013-01-14 02:48:00,
2013-01-13 18:53:00,27.5,24.5,30.09,East,90,0.0,0.0,88,0.00,,,0.01,WUHU216HW,2013-01-14 02:53:00,
2013-01-13 18:58:00,27.4,24.3,30.08,North,0,0.0,0.0,88,0.00,,,0.01,WUHU216HW,2013-01-14 02:58:00,
2013-01-13 19:03:00,27.4,24.6,30.07,North,0,0.0,0.0,89,0.00,,,0.01,WUHU216HW,2013-01-14 03:03:00,
2013-01-13 19:08:00,27.4,24.6,30.07,North,0,0.0,0.0,89,0.00,,,0.01,WUHU216HW,2013-01-14 03:08:00,
2013-01-13 19:13:00,27.2,24.4,30.08,North,0,0.0,0.0,89,0.00,,,0.01,WUHU216HW,2013-01-14 03:13:00,
2013-01-13 19:18:00,27.0,24.2,30.09,North,0,0.0,0.0,89,0.00,,,0.01,WUHU216HW,2013-01-14 03:18:00,
2013-01-13 19:23:00,27.0,24.2,30.09,North,0,0.0,0.0,89,0.00,,,0.01,WUHU216HW,2013-01-14 03:23:00,
2013-01-13 19:28:00,26.8,24.0,30.09,North,0,0.0,0.0,89,0.00,,,0.01,WUHU216HW,2013-01-14 03:28:00,
2013-01-13 19:33:00,26.6,23.9,30.09,North,0,0.0,0.0,89,0.00,,,0.01,WUHU216HW,2013-01-14 03:33:00,
2013-01-13 19:38:00,26.6,23.9,30.10,North,0,0.0,0.0,89,0.00,,,0.01,WUHU216HW,2013-01-14 03:38:00,
2013-01-13 19:43:00,26.5,23.7,30.10,North,0,0.0,0.0,89,0.00,,,0.01,WUHU216HW,2013-01-14 03:43:00,
2013-01-13 19:48:00,26.3,23.5,30.10,North,0,0.0,0.0,89,0.00,,,0.01,WUHU216HW,2013-01-14 03:48:00,
2013-01-13 19:53:00,26.3,23.5,30.10,North,0,0.0,0.0,89,0.00,,,0.01,WUHU216HW,2013-01-14 03:53:00,
2013-01-13 19:58:00,26.3,23.8,30.10,North,0,0.0,0.0,90,0.00,,,0.01,WUHU216HW,2013-01-14 03:58:00,
2013-01-13 20:03:00,26.3,23.8,30.10,North,0,0.0,0.0,90,0.00,,,0.01,WUHU216HW,2013-01-14 04:03:00,
2013-01-13 20:08:00,26.1,23.6,30.10,North,0,0.0,0.0,90,0.00,,,0.01,WUHU216HW,2013-01-14 04:08:00,
2013-01-13 20:13:00,25.9,23.4,30.10,East,90,0.0,0.0,90,0.00,,,0.01,WUHU216HW,2013-01-14 04:13:00,
2013-01-13 20:18:00,25.9,23.4,30.10,North,0,0.0,0.0,90,0.00,,,0.01,WUHU216HW,2013-01-14 04:18:00,
2013-01-13 20:23:00,25.9,23.7,30.10,North,0,0.0,0.0,91,0.00,,,0.01,WUHU216HW,2013-01-14 04:23:00,
2013-01-13 20:28:00,26.1,23.9,30.11,North,0,0.0,0.0,91,0.00,,,0.01,WUHU216HW,2013-01-14 04:28:00,
2013-01-13 20:33:00,26.1,23.9,30.11,North,0,0.0,0.0,91,0.00,,,0.01,WUHU216HW,2013-01-14 04:33:00,
2013-01-13 20:38:00,26.1,23.9,30.11,North,0,0.0,0.0,91,0.00,,,0.01,WUHU216HW,2013-01-14 04:38:00,
2013-01-13 20:43:00,26.1,23.9,30.11,North,0,0.0,0.0,91,0.00,,,0.01,WUHU216HW,2013-01-14 04:43:00,
2013-01-13 20:48:00,25.9,23.7,30.11,North,0,0.0,0.0,91,0.00,,,0.01,WUHU216HW,2013-01-14 04:48:00,
2013-01-13 20:53:00,25.9,23.7,30.11,North,0,0.0,0.0,91,0.00,,,0.01,WUHU216HW,2013-01-14 04:53:00,
2013-01-13 20:58:00,25.9,23.7,30.10,North,0,0.0,0.0,91,0.00,,,0.01,WUHU216HW,2013-01-14 04:58:00,
2013-01-13 21:00:00,25.9,23.7,30.10,North,0,0.0,0.0,91,0.00,,,0.01,WUHU216HW,2013-01-14 05:00:00,
2013-01-13 21:01:00,25.9,23.7,30.10,North,0,0.0,0.0,91,0.00,,,0.01,WUHU216HW,2013-01-14 05:01:00,
2013-01-13 21:03:00,25.9,23.7,30.10,North,0,0.0,0.0,91,0.00,,,0.01,WUHU216HW,2013-01-14 05:03:00,
2013-01-13 21:08:00,25.9,23.7,30.10,North,0,0.0,0.0,91,0.00,,,0.01,WUHU216HW,2013-01-14 05:08:00,
2013-01-13 21:13:00,25.9,23.7,30.10,North,0,0.0,0.0,91,0.00,,,0.01,WUHU216HW,2013-01-14 05:13:00,
2013-01-13 21:18:00,25.9,23.7,30.10,North,0,0.0,0.0,91,0.00,,,0.01,WUHU216HW,2013-01-14 05:18:00,
2013-01-13 21:23:00,25.9,23.7,30.10,North,0,0.0,0.0,91,0.00,,,0.01,WUHU216HW,2013-01-14 05:23:00,
2013-01-13 21:28:00,26.1,23.9,30.10,North,0,0.0,0.0,91,0.00,,,0.01,WUHU216HW,2013-01-14 05:28:00,
2013-01-13 21:33:00,25.9,23.7,30.10,North,0,0.0,0.0,91,0.00,,,0.01,WUHU216HW,2013-01-14 05:33:00,
2013-01-13 21:38:00,26.1,23.9,30.10,North,0,0.0,0.0,91,0.00,,,0.01,WUHU216HW,2013-01-14 05:38:00,
2013-01-13 21:43:00,26.3,24.0,30.11,North,0,0.0,0.0,91,0.00,,,0.01,WUHU216HW,2013-01-14 05:43:00,
2013-01-13 21:48:00,26.3,24.0,30.10,East,90,0.4,0.4,91,0.00,,,0.01,WUHU216HW,2013-01-14 05:48:00,
2013-01-13 21:53:00,26.1,23.9,30.10,East,90,0.0,0.4,91,0.00,,,0.01,WUHU216HW,2013-01-14 05:53:00,
2013-01-13 21:58:00,25.9,23.7,30.10,East,90,0.0,0.4,91,0.00,,,0.01,WUHU216HW,2013-01-14 05:58:00,
2013-01-13 22:03:00,25.9,23.7,30.11,East,90,0.0,0.0,91,0.00,,,0.01,WUHU216HW,2013-01-14 06:03:00,
2013-01-13 22:08:00,25.9,23.7,30.11,East,90,0.0,0.0,91,0.00,,,0.01,WUHU216HW,2013-01-14 06:08:00,
2013-01-13 22:13:00,25.9,23.7,30.11,East,90,0.0,0.0,91,0.00,,,0.01,WUHU216HW,2013-01-14 06:13:00,
2013-01-13 22:18:00,25.9,23.7,30.11,East,90,0.7,0.7,91,0.00,,,0.01,WUHU216HW,2013-01-14 06:18:00,
2013-01-13 22:23:00,25.9,23.7,30.12,East,90,0.4,1.1,91,0.00,,,0.01,WUHU216HW,2013-01-14 06:23:00,
2013-01-13 22:28:00,26.1,23.9,30.11,East,90,0.4,1.1,91,0.00,,,0.01,WUHU216HW,2013-01-14 06:28:00,
2013-01-13 22:33:00,26.1,23.9,30.12,East,90,0.0,0.4,91,0.00,,,0.01,WUHU216HW,2013-01-14 06:33:00,
2013-01-13 22:38:00,26.3,24.0,30.12,North,0,0.0,0.0,91,0.00,,,0.01,WUHU216HW,2013-01-14 06:38:00,
2013-01-13 22:43:00,26.3,24.3,30.11,East,90,0.0,0.0,92,0.00,,,0.01,WUHU216HW,2013-01-14 06:43:00,
2013-01-13 22:48:00,26.3,24.3,30.11,East,90,0.0,0.0,92,0.00,,,0.01,WUHU216HW,2013-01-14 06:48:00,
2013-01-13 22:53:00,26.3,24.3,30.11,North,0,0.0,0.0,92,0.00,,,0.01,WUHU216HW,2013-01-14 06:53:00,
2013-01-13 22:58:00,26.3,24.3,30.11,North,0,0.0,0.0,92,0.00,,,0.01,WUHU216HW,2013-01-14 06:58:00,
2013-01-13 23:03:00,26.3,24.3,30.11,North,0,0.0,0.0,92,0.00,,,0.01,WUHU216HW,2013-01-14 07:03:00,
2013-01-13 23:08:00,26.3,24.3,30.11,North,0,0.0,0.0,92,0.00,,,0.01,WUHU216HW,2013-01-14 07:08:00,
2013-01-13 23:13:00,26.3,24.3,30.11,North,0,0.0,0.0,92,0.00,,,0.01,WUHU216HW,2013-01-14 07:13:00,
2013-01-13 23:18:00,26.1,24.1,30.11,North,0,0.0,0.0,92,0.00,,,0.01,WUHU216HW,2013-01-14 07:18:00,
2013-01-13 23:23:00,26.1,24.1,30.10,North,0,0.0,0.0,92,0.00,,,0.01,WUHU216HW,2013-01-14 07:23:00,
2013-01-13 23:28:00,26.1,24.1,30.11,North,0,0.0,0.0,92,0.00,,,0.01,WUHU216HW,2013-01-14 07:28:00,
2013-01-13 23:33:00,26.1,24.1,30.11,North,0,0.0,0.0,92,0.00,,,0.01,WUHU216HW,2013-01-14 07:33:00,
2013-01-13 23:38:00,26.1,24.1,30.10,North,0,0.0,0.0,92,0.00,,,0.01,WUHU216HW,2013-01-14 07:38:00,
2013-01-13 23:43:00,26.3,24.3,30.10,North,0,0.0,0.0,92,0.00,,,0.01,WUHU216HW,2013-01-14 07:43:00,
2013-01-13 23:48:00,26.3,24.3,30.10,North,0,0.0,0.0,92,0.00,,,0.01,WUHU216HW,2013-01-14 07:48:00,
2013-01-13 23:53:00,26.3,24.3,30.09,North,0,0.0,0.0,92,0.00,,,0.01,WUHU216HW,2013-01-14 07:53:00,
2013-01-13 23:58:00,26.3,24.3,30.09,North,0,0.0,0.0,92,0.00,,,0.01,WUHU216HW,2013-01-14 07:58:00,